createdAt,value
2018-12-18T00:01:00.824Z,0.40
2018-12-18T00:03:28.283Z,0.40
2018-12-18T00:05:55.763Z,0.30
2018-12-18T00:08:23.213Z,0.30
2018-12-18T00:10:52.689Z,0.30
2018-12-18T00:13:20.171Z,0.30
2018-12-18T00:15:47.731Z,0.30
2018-12-18T00:18:15.188Z,0.20
2018-12-18T00:20:42.653Z,0.10
2018-12-18T00:23:10.098Z,0.20
2018-12-18T00:25:37.547Z,0.10
2018-12-18T00:28:05.019Z,0.10
2018-12-18T00:30:32.486Z,0.10
2018-12-18T00:32:59.974Z,0.10
2018-12-18T00:35:27.434Z,0.10
2018-12-18T00:37:54.899Z,0.10
2018-12-18T00:40:22.519Z,0.10
2018-12-18T00:42:49.999Z,0.10
2018-12-18T00:45:17.438Z,0.00
2018-12-18T00:47:44.993Z,0.00
2018-12-18T00:50:12.462Z,0.00
2018-12-18T00:52:39.962Z,0.00
2018-12-18T00:55:07.958Z,0.00
2018-12-18T00:57:35.522Z,0.00
2018-12-18T01:00:04.830Z,0.00
2018-12-18T01:02:32.293Z,0.00
2018-12-18T01:04:59.749Z,0.00
2018-12-18T01:07:27.237Z,0.10
2018-12-18T01:09:54.687Z,0.10
2018-12-18T01:12:22.165Z,0.10
2018-12-18T01:14:49.614Z,0.10
2018-12-18T01:17:17.085Z,0.10
2018-12-18T01:19:44.544Z,0.10
2018-12-18T01:22:12.144Z,0.10
2018-12-18T01:24:39.599Z,0.20
2018-12-18T01:27:07.125Z,0.20
2018-12-18T01:29:34.601Z,0.20
2018-12-18T01:32:02.053Z,0.20
2018-12-18T01:34:29.531Z,0.10
2018-12-18T01:36:56.994Z,0.20
2018-12-18T01:39:24.643Z,0.20
2018-12-18T01:41:52.682Z,0.20
2018-12-18T01:44:20.248Z,0.20
2018-12-18T01:46:47.776Z,0.20
2018-12-18T01:49:15.346Z,0.20
2018-12-18T01:51:42.840Z,0.20
2018-12-18T01:54:10.305Z,0.20
2018-12-18T01:56:37.798Z,0.20
2018-12-18T01:59:05.243Z,0.20
2018-12-18T02:01:32.707Z,0.20
2018-12-18T02:04:05.964Z,0.20
2018-12-18T02:06:29.803Z,0.20
2018-12-18T02:08:57.250Z,0.20
2018-12-18T02:11:25.021Z,0.20
2018-12-18T02:13:52.466Z,0.20
2018-12-18T02:16:19.946Z,0.30
2018-12-18T02:18:47.405Z,0.20
2018-12-18T02:21:14.877Z,0.20
2018-12-18T02:23:42.337Z,0.20
2018-12-18T02:26:09.834Z,0.20
2018-12-18T02:28:37.294Z,0.20
2018-12-18T02:31:04.778Z,0.20
2018-12-18T02:33:32.218Z,0.20
2018-12-18T02:35:59.690Z,0.20
2018-12-18T02:38:27.145Z,0.20
2018-12-18T02:40:54.627Z,0.20
2018-12-18T02:43:22.070Z,0.20
2018-12-18T02:45:49.545Z,0.20
2018-12-18T02:48:17.687Z,0.20
2018-12-18T02:50:45.165Z,0.20
2018-12-18T02:53:12.726Z,0.30
2018-12-18T02:55:40.206Z,0.30
2018-12-18T02:58:07.673Z,0.30
2018-12-18T03:00:35.138Z,0.30
2018-12-18T03:03:02.638Z,0.30
2018-12-18T03:05:30.096Z,0.30
2018-12-18T03:07:57.573Z,0.30
2018-12-18T03:10:25.025Z,0.40
2018-12-18T03:12:52.714Z,0.30
2018-12-18T03:15:20.266Z,0.30
2018-12-18T03:17:47.717Z,0.30
2018-12-18T03:20:15.180Z,0.30
2018-12-18T03:22:42.646Z,0.20
2018-12-18T03:25:10.098Z,0.20
2018-12-18T03:27:37.556Z,0.20
2018-12-18T03:30:05.715Z,0.20
2018-12-18T03:32:34.250Z,0.20
2018-12-18T03:35:01.801Z,0.20
2018-12-18T03:37:29.326Z,0.20
2018-12-18T03:39:57.594Z,0.10
2018-12-18T03:42:25.038Z,0.10
2018-12-18T03:44:52.511Z,0.00
2018-12-18T03:47:19.980Z,0.00
2018-12-18T03:49:47.441Z,0.00
2018-12-18T03:52:14.890Z,0.00
2018-12-18T03:54:42.353Z,0.00
2018-12-18T03:57:09.818Z,0.00
2018-12-18T03:59:37.342Z,0.00
2018-12-18T04:02:04.799Z,0.00
2018-12-18T04:04:35.604Z,0.00
2018-12-18T04:07:01.726Z,-0.10
2018-12-18T04:09:29.193Z,-0.10
2018-12-18T04:12:02.269Z,-0.10
2018-12-18T04:14:29.831Z,-0.20
2018-12-18T04:16:57.293Z,-0.10
2018-12-18T04:19:24.849Z,-0.20
2018-12-18T04:21:52.378Z,-0.10
2018-12-18T04:24:19.951Z,-0.20
2018-12-18T04:26:47.517Z,-0.20
2018-12-18T04:29:14.993Z,-0.30
2018-12-18T04:31:42.541Z,-0.30
2018-12-18T04:34:10.018Z,-0.30
2018-12-18T04:36:37.471Z,-0.30
2018-12-18T04:39:05.856Z,-0.30
2018-12-18T04:41:33.419Z,-0.40
2018-12-18T04:44:00.866Z,-0.40
2018-12-18T04:46:28.338Z,-0.40
2018-12-18T04:48:55.800Z,-0.40
2018-12-18T04:51:23.258Z,-0.40
2018-12-18T04:53:50.714Z,-0.40
2018-12-18T04:56:18.179Z,-0.40
2018-12-18T04:58:45.632Z,-0.50
2018-12-18T05:01:13.114Z,-0.40
2018-12-18T05:03:40.561Z,-0.40
2018-12-18T05:06:08.058Z,-0.40
2018-12-18T05:08:35.507Z,-0.40
2018-12-18T05:11:03.069Z,-0.50
2018-12-18T05:13:30.627Z,-0.50
2018-12-18T05:15:58.097Z,-0.50
2018-12-18T05:18:25.560Z,-0.60
2018-12-18T05:20:53.020Z,-0.60
2018-12-18T05:23:21.117Z,-0.50
2018-12-18T05:25:48.563Z,-0.60
2018-12-18T05:28:16.332Z,-0.50
2018-12-18T05:30:43.873Z,-0.50
2018-12-18T05:33:11.346Z,-0.60
2018-12-18T05:35:38.793Z,-0.60
2018-12-18T05:38:06.267Z,-0.60
2018-12-18T05:40:33.773Z,-0.60
2018-12-18T05:43:01.238Z,-0.70
2018-12-18T05:45:28.692Z,-0.80
2018-12-18T05:47:56.157Z,-0.80
2018-12-18T05:50:23.606Z,-0.90
2018-12-18T05:52:51.065Z,-1.00
2018-12-18T05:55:18.537Z,-1.00
2018-12-18T05:57:45.997Z,-1.00
2018-12-18T06:00:13.471Z,-1.00
2018-12-18T06:02:40.920Z,-1.10
2018-12-18T06:05:08.406Z,-1.00
2018-12-18T06:07:35.846Z,-1.00
2018-12-18T06:10:03.763Z,-1.00
2018-12-18T06:12:31.247Z,-0.90
2018-12-18T06:14:58.751Z,-0.90
2018-12-18T06:17:26.226Z,-0.90
2018-12-18T06:19:53.701Z,-0.90
2018-12-18T06:22:21.198Z,-0.90
2018-12-18T06:24:49.410Z,-0.90
2018-12-18T06:27:16.927Z,-0.90
2018-12-18T06:29:44.366Z,-1.00
2018-12-18T06:32:11.823Z,-1.00
2018-12-18T06:34:39.329Z,-1.10
2018-12-18T06:37:06.799Z,-1.00
2018-12-18T06:39:34.353Z,-1.00
2018-12-18T06:42:01.878Z,-1.00
2018-12-18T06:44:29.358Z,-1.00
2018-12-18T06:46:56.823Z,-1.10
2018-12-18T06:49:24.332Z,-1.10
2018-12-18T06:51:51.806Z,-1.20
2018-12-18T06:54:19.350Z,-1.10
2018-12-18T06:56:46.823Z,-1.10
2018-12-18T06:59:14.785Z,-1.00
2018-12-18T07:01:42.263Z,-1.00
2018-12-18T07:04:09.725Z,-1.00
2018-12-18T07:06:37.437Z,-1.00
2018-12-18T07:09:07.386Z,-0.90
2018-12-18T07:11:34.865Z,-0.90
2018-12-18T07:14:02.394Z,-1.00
2018-12-18T07:16:29.869Z,-1.00
2018-12-18T07:18:57.387Z,-1.00
2018-12-18T07:21:24.861Z,-1.10
2018-12-18T07:23:52.316Z,-1.10
2018-12-18T07:26:19.791Z,-1.10
2018-12-18T07:28:47.237Z,-1.10
2018-12-18T07:31:14.714Z,-1.20
2018-12-18T07:33:42.187Z,-1.20
2018-12-18T07:36:09.678Z,-1.20
2018-12-18T07:38:37.149Z,-1.20
2018-12-18T07:41:04.594Z,-1.20
2018-12-18T07:43:32.085Z,-1.20
2018-12-18T07:45:59.534Z,-1.20
2018-12-18T07:48:27.009Z,-1.10
2018-12-18T07:50:54.470Z,-1.10
2018-12-18T07:53:21.956Z,-1.10
2018-12-18T07:55:49.410Z,-1.10
2018-12-18T07:58:16.994Z,-1.10
2018-12-18T08:00:44.455Z,-1.20
2018-12-18T08:03:12.213Z,-1.20
2018-12-18T08:05:39.662Z,-1.30
2018-12-18T08:08:07.180Z,-1.10
2018-12-18T08:10:34.643Z,-1.10
2018-12-18T08:13:02.098Z,-1.10
2018-12-18T08:15:29.629Z,-1.10
2018-12-18T08:17:57.078Z,-1.40
2018-12-18T08:20:24.554Z,-1.50
2018-12-18T08:22:52.694Z,-1.50
2018-12-18T08:25:20.142Z,-1.60
2018-12-18T08:27:47.631Z,-1.40
2018-12-18T08:30:15.105Z,-1.40
2018-12-18T08:32:42.561Z,-1.30
2018-12-18T08:35:10.049Z,-1.30
2018-12-18T08:37:37.525Z,-1.40
2018-12-18T08:40:06.638Z,-1.40
2018-12-18T08:42:34.100Z,-1.40
2018-12-18T08:45:01.570Z,-1.30
2018-12-18T08:47:29.034Z,-1.30
2018-12-18T08:49:56.503Z,-1.20
2018-12-18T08:52:23.959Z,-1.30
2018-12-18T08:54:51.448Z,-1.30
2018-12-18T08:57:18.937Z,-1.20
2018-12-18T08:59:46.414Z,-1.10
2018-12-18T09:02:13.936Z,-1.00
2018-12-18T09:04:41.447Z,-1.20
2018-12-18T09:07:09.090Z,-1.30
2018-12-18T09:09:36.548Z,-1.10
2018-12-18T09:12:04.081Z,-1.20
2018-12-18T09:14:31.545Z,-1.20
2018-12-18T09:17:02.244Z,-1.10
2018-12-18T09:19:29.841Z,-1.10
2018-12-18T09:21:57.313Z,-1.00
2018-12-18T09:24:24.765Z,-1.00
2018-12-18T09:26:52.252Z,-1.00
2018-12-18T09:29:19.702Z,-0.90
2018-12-18T09:31:47.245Z,-0.90
2018-12-18T09:34:14.717Z,-0.80
2018-12-18T09:36:42.188Z,-0.80
2018-12-18T09:39:18.569Z,-0.80
2018-12-18T09:41:46.636Z,-0.90
2018-12-18T09:44:17.105Z,-0.80
2018-12-18T09:46:44.695Z,-0.70
2018-12-18T09:49:12.150Z,-0.60
2018-12-18T09:51:39.606Z,-0.60
2018-12-18T09:54:07.173Z,-0.60
2018-12-18T09:56:36.598Z,-0.50
2018-12-18T09:59:04.082Z,-0.50
2018-12-18T10:01:31.546Z,-0.60
2018-12-18T10:03:58.996Z,-0.60
2018-12-18T10:06:26.458Z,-0.60
2018-12-18T10:08:54.006Z,-0.50
2018-12-18T10:11:22.346Z,-0.40
2018-12-18T10:13:49.805Z,-0.30
2018-12-18T10:16:17.323Z,-0.30
2018-12-18T10:18:44.825Z,-0.40
2018-12-18T10:21:12.824Z,-0.50
2018-12-18T10:23:40.296Z,-0.80
2018-12-18T10:26:07.766Z,-0.70
2018-12-18T10:28:35.245Z,-0.80
2018-12-18T10:31:02.708Z,-0.70
2018-12-18T10:33:30.192Z,-0.50
2018-12-18T10:36:03.030Z,-0.60
2018-12-18T10:38:27.326Z,-0.60
2018-12-18T10:40:55.481Z,-0.50
2018-12-18T10:43:22.938Z,-0.50
2018-12-18T10:45:50.410Z,-0.40
2018-12-18T10:48:17.869Z,-0.30
2018-12-18T10:50:45.334Z,-0.30
2018-12-18T10:53:12.815Z,-0.30
2018-12-18T10:55:40.525Z,-0.40
2018-12-18T10:58:08.557Z,-0.40
2018-12-18T11:00:41.635Z,-0.20
2018-12-18T11:03:09.088Z,-0.30
2018-12-18T11:05:36.680Z,-0.20
2018-12-18T11:08:04.149Z,-0.10
2018-12-18T11:10:31.623Z,0.00
2018-12-18T11:13:04.857Z,0.10
2018-12-18T11:15:32.319Z,0.00
2018-12-18T11:17:59.769Z,0.00
2018-12-18T11:20:27.243Z,0.10
2018-12-18T11:22:54.718Z,0.20
2018-12-18T11:25:22.589Z,0.10
2018-12-18T11:27:50.485Z,-0.10
2018-12-18T11:30:17.968Z,-0.10
2018-12-18T11:32:45.439Z,0.00
2018-12-18T11:35:12.905Z,0.00
2018-12-18T11:37:40.389Z,-0.10
2018-12-18T11:40:08.494Z,0.00
2018-12-18T11:42:36.035Z,0.10
2018-12-18T11:45:03.929Z,0.20
2018-12-18T11:47:31.603Z,0.10
2018-12-18T11:49:59.064Z,0.20
2018-12-18T11:52:26.547Z,0.20
2018-12-18T11:54:54.002Z,0.20
2018-12-18T11:57:21.530Z,0.30
2018-12-18T11:59:48.961Z,0.30
2018-12-18T12:02:16.431Z,0.20
2018-12-18T12:04:43.875Z,0.30
2018-12-18T12:07:11.347Z,0.20
2018-12-18T12:09:38.814Z,0.30
2018-12-18T12:12:06.291Z,0.30
2018-12-18T12:14:33.739Z,0.20
2018-12-18T12:17:01.632Z,0.20
2018-12-18T12:19:29.322Z,0.20
2018-12-18T12:21:56.769Z,0.20
2018-12-18T12:24:24.234Z,0.30
2018-12-18T12:26:53.776Z,0.30
2018-12-18T12:29:21.265Z,0.20
2018-12-18T12:31:48.728Z,0.20
2018-12-18T12:34:16.192Z,0.10
2018-12-18T12:36:43.667Z,0.00
2018-12-18T12:39:11.144Z,0.10
2018-12-18T12:41:38.606Z,0.10
2018-12-18T12:44:06.054Z,0.10
2018-12-18T12:46:33.529Z,0.10
2018-12-18T12:49:02.949Z,0.10
2018-12-18T12:51:30.446Z,0.20
2018-12-18T12:53:57.906Z,0.20
2018-12-18T12:56:25.358Z,0.30
2018-12-18T12:58:52.864Z,0.30
2018-12-18T13:01:20.384Z,0.40
2018-12-18T13:03:47.875Z,0.40
2018-12-18T13:06:15.395Z,0.30
2018-12-18T13:08:42.846Z,0.40
2018-12-18T13:11:10.319Z,0.50
2018-12-18T13:13:37.846Z,0.50
2018-12-18T13:16:05.325Z,0.60
2018-12-18T13:18:32.789Z,0.40
2018-12-18T13:21:00.248Z,0.50
2018-12-18T13:23:27.712Z,0.50
2018-12-18T13:25:55.188Z,0.50
2018-12-18T13:28:22.728Z,0.50
2018-12-18T13:30:50.204Z,0.50
2018-12-18T13:33:17.668Z,0.50
2018-12-18T13:35:45.149Z,0.40
2018-12-18T13:38:12.699Z,0.30
2018-12-18T13:40:40.145Z,0.40
2018-12-18T13:43:07.635Z,0.40
2018-12-18T13:45:35.074Z,0.30
2018-12-18T13:48:02.555Z,0.40
2018-12-18T13:50:30.006Z,0.40
2018-12-18T13:52:57.485Z,0.40
2018-12-18T13:55:24.931Z,0.30
2018-12-18T13:57:52.419Z,0.40
2018-12-18T14:00:19.942Z,0.40
2018-12-18T14:02:47.467Z,0.40
2018-12-18T14:05:15.120Z,0.40
2018-12-18T14:07:42.594Z,0.40
2018-12-18T14:10:10.149Z,0.40
2018-12-18T14:12:37.616Z,0.40
2018-12-18T14:15:05.241Z,0.40
2018-12-18T14:17:32.706Z,0.30
2018-12-18T14:20:00.164Z,0.20
2018-12-18T14:22:27.729Z,0.30
2018-12-18T14:24:55.232Z,0.20
2018-12-18T14:27:22.798Z,0.20
2018-12-18T14:29:50.264Z,0.10
2018-12-18T14:32:17.761Z,0.10
2018-12-18T14:34:45.274Z,0.10
2018-12-18T14:37:12.786Z,0.10
2018-12-18T14:39:40.336Z,0.10
2018-12-18T14:42:07.878Z,0.20
2018-12-18T14:44:35.350Z,0.20
2018-12-18T14:47:02.806Z,0.10
2018-12-18T14:49:30.284Z,0.10
2018-12-18T14:51:58.502Z,0.20
2018-12-18T14:54:26.392Z,0.20
2018-12-18T14:56:53.909Z,0.10
2018-12-18T14:59:21.652Z,0.10
2018-12-18T15:01:49.107Z,0.10
2018-12-18T15:04:16.585Z,0.10
2018-12-18T15:06:44.051Z,0.20
2018-12-18T15:09:11.563Z,0.20
2018-12-18T15:11:39.020Z,0.20
2018-12-18T15:14:06.475Z,0.20
2018-12-18T15:16:33.974Z,0.20
2018-12-18T15:19:01.441Z,0.20
2018-12-18T15:21:28.949Z,0.20
2018-12-18T15:23:56.407Z,0.20
2018-12-18T15:26:23.910Z,0.20
2018-12-18T15:28:51.392Z,0.20
2018-12-18T15:31:18.886Z,0.10
2018-12-18T15:33:46.334Z,0.20
2018-12-18T15:36:13.798Z,0.20
2018-12-18T15:38:41.277Z,0.20
2018-12-18T15:41:08.741Z,0.20
2018-12-18T15:43:36.186Z,0.10
2018-12-18T15:46:03.731Z,0.10
2018-12-18T15:48:31.182Z,0.20
2018-12-18T15:50:58.654Z,0.20
2018-12-18T15:53:26.139Z,0.20
2018-12-18T15:55:54.356Z,0.10
2018-12-18T15:58:21.829Z,0.20
2018-12-18T16:00:50.103Z,0.20
2018-12-18T16:03:17.602Z,0.20
2018-12-18T16:05:45.040Z,0.20
2018-12-18T16:08:12.696Z,0.20
2018-12-18T16:10:40.670Z,0.20
2018-12-18T16:13:09.065Z,0.20
2018-12-18T16:15:36.592Z,0.20
2018-12-18T16:18:04.090Z,0.20
2018-12-18T16:20:31.543Z,0.20
2018-12-18T16:22:59.027Z,0.20
2018-12-18T16:25:26.492Z,0.10
2018-12-18T16:27:53.967Z,0.20
2018-12-18T16:30:21.677Z,0.20
2018-12-18T16:32:49.153Z,0.20
2018-12-18T16:35:16.621Z,0.20
2018-12-18T16:37:44.090Z,0.20
2018-12-18T16:40:11.577Z,0.20
2018-12-18T16:42:39.045Z,0.20
2018-12-18T16:45:06.591Z,0.20
2018-12-18T16:47:34.041Z,0.20
2018-12-18T16:50:01.513Z,0.20
2018-12-18T16:52:28.996Z,0.20
2018-12-18T16:54:56.476Z,0.20
2018-12-18T16:57:23.924Z,0.20
2018-12-18T16:59:51.490Z,0.20
2018-12-18T17:02:19.124Z,0.20
2018-12-18T17:04:46.585Z,0.10
2018-12-18T17:07:14.052Z,0.20
2018-12-18T17:09:41.529Z,0.20
2018-12-18T17:12:08.973Z,0.20
2018-12-18T17:14:36.561Z,0.20
2018-12-18T17:17:04.034Z,0.20
2018-12-18T17:19:31.505Z,0.20
2018-12-18T17:21:58.967Z,0.20
2018-12-18T17:24:26.444Z,0.20
2018-12-18T17:26:53.903Z,0.20
2018-12-18T17:29:22.221Z,0.20
2018-12-18T17:31:49.775Z,0.20
2018-12-18T17:34:17.258Z,0.20
2018-12-18T17:36:44.817Z,0.20
2018-12-18T17:39:12.273Z,0.30
2018-12-18T17:41:39.754Z,0.30
2018-12-18T17:44:07.215Z,0.30
2018-12-18T17:46:35.103Z,0.30
2018-12-18T17:49:02.612Z,0.30
2018-12-18T17:51:30.098Z,0.30
2018-12-18T17:53:58.390Z,0.30
2018-12-18T17:56:25.850Z,0.30
2018-12-18T17:58:53.314Z,0.30
2018-12-18T18:01:20.865Z,0.40
2018-12-18T18:03:48.317Z,0.40
2018-12-18T18:06:16.023Z,0.40
2018-12-18T18:08:43.901Z,0.40
